createdAt,value
2022-10-05T00:00:35.531Z,14.30
2022-10-05T00:03:45.227Z,13.90
2022-10-05T00:06:34.994Z,14.50
2022-10-05T00:09:24.975Z,13.20
2022-10-05T00:12:16.965Z,14.60
2022-10-05T00:15:12.836Z,13.20
2022-10-05T00:20:52.801Z,12.90
2022-10-05T00:23:42.538Z,12.40
2022-10-05T00:26:34.150Z,13.90
2022-10-05T00:29:24.406Z,14.30
2022-10-05T00:32:14.163Z,13.00
2022-10-05T00:35:04.452Z,12.60
2022-10-05T00:37:54.745Z,12.80
2022-10-05T00:40:56.081Z,12.70
2022-10-05T00:44:03.748Z,12.60
2022-10-05T00:46:56.741Z,12.80
2022-10-05T00:50:46.591Z,12.40
2022-10-05T00:53:42.873Z,12.60
2022-10-05T00:56:45.128Z,11.60
2022-10-05T00:59:46.378Z,12.10
2022-10-05T01:02:45.015Z,12.90
2022-10-05T01:05:51.127Z,12.90
2022-10-05T01:08:48.962Z,12.20
2022-10-05T01:11:43.332Z,12.10
2022-10-05T01:14:39.981Z,12.20
2022-10-05T01:17:33.608Z,13.30
2022-10-05T01:20:38.930Z,12.10
2022-10-05T01:23:58.796Z,11.80
2022-10-05T01:27:16.487Z,10.60
2022-10-05T01:30:10.412Z,12.70
2022-10-05T01:33:03.541Z,10.90
2022-10-05T01:35:58.581Z,11.90
2022-10-05T01:38:52.550Z,12.40
2022-10-05T01:41:46.776Z,10.70
2022-10-05T01:44:40.937Z,11.40
2022-10-05T01:47:35.771Z,10.90
2022-10-05T01:50:31.716Z,11.60
2022-10-05T01:53:31.181Z,11.40
2022-10-05T01:56:28.325Z,11.10
2022-10-05T02:02:12.332Z,11.10
2022-10-05T02:05:06.513Z,9.80
2022-10-05T02:07:58.536Z,11.50
2022-10-05T02:10:51.405Z,11.90
2022-10-05T02:13:44.018Z,10.00
2022-10-05T02:16:36.695Z,12.10
2022-10-05T02:19:29.712Z,10.10
2022-10-05T02:22:24.220Z,10.60
2022-10-05T02:25:16.697Z,11.20
2022-10-05T02:28:09.848Z,10.90
2022-10-05T02:31:04.191Z,10.30
2022-10-05T02:34:18.046Z,9.90
2022-10-05T02:37:22.733Z,10.40
2022-10-05T02:40:21.986Z,10.40
2022-10-05T02:43:20.890Z,10.90
2022-10-05T02:46:18.969Z,10.60
2022-10-05T02:49:18.363Z,12.00
2022-10-05T02:52:11.434Z,10.90
2022-10-05T02:55:07.715Z,10.20
2022-10-05T02:58:02.859Z,10.00
2022-10-05T03:00:57.443Z,9.90
2022-10-05T03:03:52.294Z,10.60
2022-10-05T03:06:48.283Z,10.60
2022-10-05T03:09:44.868Z,10.20
2022-10-05T03:12:50.341Z,10.20
2022-10-05T03:16:10.243Z,11.00
2022-10-05T03:19:20.483Z,11.50
2022-10-05T03:22:17.445Z,9.50
2022-10-05T03:25:30.578Z,9.60
2022-10-05T03:28:24.713Z,11.50
2022-10-05T03:31:20.838Z,9.70
2022-10-05T03:37:07.313Z,9.80
2022-10-05T03:40:02.863Z,10.50
2022-10-05T03:43:01.113Z,9.60
2022-10-05T03:45:57.485Z,9.80
2022-10-05T03:48:54.587Z,9.60
2022-10-05T03:51:46.879Z,9.50
2022-10-05T03:54:39.787Z,9.90
2022-10-05T03:57:33.140Z,9.70
2022-10-05T04:00:23.266Z,9.50
2022-10-05T04:03:21.040Z,9.60
2022-10-05T04:06:13.545Z,10.00
2022-10-05T04:09:07.174Z,9.70
2022-10-05T04:12:03.370Z,9.10
2022-10-05T04:14:56.984Z,9.50
2022-10-05T04:17:49.014Z,9.00
2022-10-05T04:20:42.533Z,9.30
2022-10-05T04:23:45.134Z,9.10
2022-10-05T04:26:38.834Z,10.30
2022-10-05T04:29:32.564Z,10.30
2022-10-05T04:32:43.164Z,10.20
2022-10-05T04:36:03.955Z,10.20
2022-10-05T04:39:05.683Z,10.00
2022-10-05T04:42:08.507Z,10.10
2022-10-05T04:45:08.759Z,11.00
2022-10-05T04:48:33.810Z,10.10
2022-10-05T04:51:35.956Z,10.20
2022-10-05T04:54:34.882Z,10.80
2022-10-05T04:57:27.997Z,11.40
2022-10-05T05:00:24.553Z,12.10
2022-10-05T05:03:52.529Z,12.00
2022-10-05T05:06:46.922Z,11.70
2022-10-05T05:10:07.379Z,12.20
2022-10-05T05:13:04.007Z,12.70
2022-10-05T05:15:56.610Z,11.90
2022-10-05T05:19:25.108Z,13.10
2022-10-05T05:22:20.601Z,13.30
2022-10-05T05:25:31.664Z,12.60
2022-10-05T05:28:27.168Z,13.60
2022-10-05T05:31:23.753Z,15.10
2022-10-05T05:34:30.254Z,13.10
2022-10-05T05:37:24.487Z,12.80
2022-10-05T05:40:24.660Z,13.70
2022-10-05T05:44:06.261Z,14.20
2022-10-05T05:47:05.271Z,14.30
2022-10-05T05:50:17.735Z,14.80
2022-10-05T05:53:17.478Z,13.30
2022-10-05T05:56:11.859Z,15.70
2022-10-05T05:59:03.565Z,14.80
2022-10-05T06:01:58.458Z,14.90
2022-10-05T06:04:52.562Z,14.50
2022-10-05T06:07:45.164Z,15.20
2022-10-05T06:10:45.221Z,15.50
2022-10-05T06:13:38.660Z,16.20
2022-10-05T06:16:33.387Z,16.40
2022-10-05T06:22:25.802Z,12.60
2022-10-05T06:25:49.781Z,11.60
2022-10-05T06:29:13.148Z,12.40
2022-10-05T06:32:27.231Z,12.80
2022-10-05T06:52:16.385Z,12.70
2022-10-05T06:56:08.957Z,10.20
2022-10-05T06:59:05.319Z,12.80
2022-10-05T07:02:08.917Z,11.00
2022-10-05T07:05:47.194Z,11.10
2022-10-05T07:14:38.046Z,8.70
2022-10-05T07:18:28.165Z,8.60
2022-10-05T07:25:36.605Z,9.60
2022-10-05T07:29:00.540Z,9.70
2022-10-05T07:32:03.740Z,10.00
2022-10-05T07:46:21.400Z,11.30
2022-10-05T07:50:21.728Z,10.60
2022-10-05T10:01:29.060Z,7.80
2022-10-05T10:57:01.286Z,7.30
2022-10-05T11:01:07.392Z,8.60
2022-10-05T11:15:42.912Z,8.80
2022-10-05T11:19:40.102Z,8.20
2022-10-05T11:23:20.493Z,13.00
2022-10-05T11:27:05.083Z,11.80
2022-10-05T11:30:39.121Z,8.20
2022-10-05T11:33:57.851Z,6.50
2022-10-05T11:37:27.049Z,7.40
2022-10-05T11:40:51.842Z,7.10
2022-10-05T11:44:27.963Z,6.70
2022-10-05T11:47:20.868Z,5.90
2022-10-05T11:50:19.505Z,7.00
2022-10-05T11:53:15.206Z,7.80
2022-10-05T11:56:13.538Z,7.90
2022-10-05T11:59:08.546Z,6.10
2022-10-05T12:02:07.973Z,8.90
2022-10-05T12:05:06.074Z,7.10
2022-10-05T12:08:09.244Z,5.50
2022-10-05T12:11:11.884Z,6.20
2022-10-05T12:14:05.410Z,5.60
2022-10-05T12:16:59.498Z,7.00
2022-10-05T12:19:56.647Z,7.10
2022-10-05T12:22:51.152Z,6.60
2022-10-05T12:25:50.812Z,6.90
2022-10-05T12:28:51.493Z,6.90
2022-10-05T12:31:49.500Z,6.30
2022-10-05T12:34:50.728Z,7.50
2022-10-05T12:37:46.541Z,5.40
2022-10-05T12:40:44.585Z,5.40
2022-10-05T12:43:43.754Z,5.50
2022-10-05T12:46:43.648Z,7.40
2022-10-05T12:49:56.839Z,8.00
2022-10-05T12:53:07.014Z,8.80
2022-10-05T12:56:04.269Z,7.10
2022-10-05T12:59:00.206Z,8.10
2022-10-05T13:01:55.959Z,9.10
2022-10-05T13:07:51.835Z,11.20
2022-10-05T13:10:50.539Z,11.40
2022-10-05T13:14:03.303Z,12.50
2022-10-05T13:16:58.937Z,12.40
2022-10-05T13:19:53.135Z,17.70
2022-10-05T13:22:48.647Z,16.40
2022-10-05T13:25:44.525Z,17.20
2022-10-05T13:31:30.794Z,17.80
2022-10-05T13:34:28.238Z,18.00
2022-10-05T13:37:22.756Z,17.10
2022-10-05T13:40:23.513Z,17.60
2022-10-05T13:43:18.037Z,17.60
2022-10-05T13:46:14.031Z,16.90
2022-10-05T13:49:19.234Z,16.10
2022-10-05T13:52:22.186Z,15.80
2022-10-05T13:55:26.415Z,15.60
2022-10-05T13:58:26.292Z,14.90
2022-10-05T14:01:19.664Z,13.40
2022-10-05T14:04:19.959Z,15.60
2022-10-05T14:07:38.860Z,13.10
2022-10-05T14:10:39.464Z,13.80
2022-10-05T14:13:46.591Z,13.60
2022-10-05T14:16:53.772Z,13.80
2022-10-05T14:19:57.250Z,14.10
2022-10-05T14:22:52.590Z,12.60
2022-10-05T14:25:54.446Z,13.60
2022-10-05T14:28:59.896Z,13.20
2022-10-05T14:32:00.823Z,11.40
2022-10-05T14:35:21.834Z,11.60
2022-10-05T14:38:24.071Z,14.10
2022-10-05T14:41:18.719Z,12.70
2022-10-05T14:44:30.003Z,14.20
2022-10-05T14:47:31.047Z,11.70
2022-10-05T14:50:25.692Z,10.90
2022-10-05T14:53:17.986Z,13.10
2022-10-05T14:56:35.922Z,14.10
2022-10-05T14:59:38.898Z,11.20
2022-10-05T15:03:03.245Z,12.80
2022-10-05T15:06:01.141Z,13.00
2022-10-05T15:09:17.861Z,10.30
2022-10-05T15:12:23.284Z,11.40
2022-10-05T15:15:32.760Z,11.60
2022-10-05T15:18:34.297Z,12.60
2022-10-05T15:21:44.676Z,11.70
2022-10-05T15:24:43.764Z,12.00
2022-10-05T15:28:10.375Z,13.60
2022-10-05T15:31:04.565Z,10.40
2022-10-05T15:34:03.294Z,10.20
2022-10-05T15:36:57.756Z,11.80
2022-10-05T15:39:52.932Z,11.50
2022-10-05T15:42:44.886Z,10.30
2022-10-05T15:45:41.438Z,9.90
2022-10-05T15:48:42.997Z,10.90
2022-10-05T15:51:47.321Z,10.60
2022-10-05T15:55:22.275Z,9.80
2022-10-05T15:58:38.575Z,9.70
2022-10-05T16:01:50.835Z,9.60
2022-10-05T16:04:47.121Z,10.60
2022-10-05T16:08:01.512Z,10.50
2022-10-05T16:10:53.820Z,9.10
2022-10-05T16:13:53.704Z,9.10
2022-10-05T16:16:52.608Z,8.90
2022-10-05T16:19:50.224Z,9.10
2022-10-05T16:22:46.244Z,9.70
2022-10-05T16:28:43.374Z,8.90
2022-10-05T16:31:57.110Z,9.40
2022-10-05T16:35:17.248Z,11.70
2022-10-05T16:38:20.444Z,9.80
2022-10-05T16:41:20.573Z,9.20
2022-10-05T16:44:17.625Z,8.80
2022-10-05T16:48:07.841Z,10.00
2022-10-05T16:55:21.033Z,9.60
2022-10-05T16:58:40.239Z,11.40
2022-10-05T17:01:54.570Z,9.00
2022-10-05T17:04:56.299Z,8.10
2022-10-05T17:08:08.741Z,10.00
2022-10-05T17:11:16.834Z,8.70
2022-10-05T17:19:39.775Z,8.20
2022-10-05T17:23:19.925Z,7.30
2022-10-05T17:31:32.777Z,8.70
2022-10-05T17:34:30.657Z,8.20
2022-10-05T17:37:40.269Z,8.70
2022-10-05T17:40:41.583Z,8.40
2022-10-05T17:43:51.442Z,7.90
2022-10-05T17:46:49.896Z,7.80
2022-10-05T17:50:19.629Z,7.50
2022-10-05T17:53:44.811Z,8.00
2022-10-05T18:04:14.318Z,9.80
2022-10-05T18:14:01.884Z,9.10
2022-10-05T18:25:37.657Z,12.20
2022-10-05T18:28:37.718Z,10.20
2022-10-05T18:31:43.284Z,11.40
2022-10-05T18:34:37.829Z,9.80
2022-10-05T18:37:41.607Z,9.30
2022-10-05T18:40:48.678Z,9.40
2022-10-05T18:43:45.829Z,9.60
2022-10-05T18:46:47.009Z,9.10
2022-10-05T18:49:51.341Z,8.10
2022-10-05T18:53:05.910Z,7.90
2022-10-05T18:56:10.785Z,9.40
2022-10-05T18:59:24.214Z,11.20
2022-10-05T19:02:22.759Z,9.50
2022-10-05T19:05:46.859Z,12.80
2022-10-05T19:08:42.438Z,9.80
2022-10-05T19:11:52.853Z,9.90
2022-10-05T19:14:50.154Z,10.00
2022-10-05T19:18:08.104Z,10.60
2022-10-05T19:21:06.396Z,10.30
2022-10-05T19:24:49.804Z,9.40
2022-10-05T19:27:46.813Z,9.00
2022-10-05T19:30:51.332Z,11.00
2022-10-05T19:34:03.037Z,11.40
2022-10-05T19:37:03.254Z,10.50
2022-10-05T19:40:07.348Z,12.00
2022-10-05T19:43:14.378Z,10.60
2022-10-05T19:46:19.007Z,10.20
2022-10-05T19:49:11.449Z,9.70
2022-10-05T19:52:03.950Z,8.70
2022-10-05T19:55:14.866Z,9.80
2022-10-05T19:58:18.441Z,9.00
2022-10-05T20:01:10.819Z,9.30
2022-10-05T20:04:00.940Z,8.80
2022-10-05T20:06:57.880Z,9.70
2022-10-05T20:10:01.373Z,8.60
2022-10-05T20:12:53.189Z,9.70
2022-10-05T20:16:09.720Z,9.90
2022-10-05T20:19:24.188Z,9.00
2022-10-05T20:22:34.077Z,11.70
2022-10-05T20:25:31.841Z,9.20
2022-10-05T20:28:32.291Z,10.50
2022-10-05T20:31:23.342Z,10.70
2022-10-05T20:34:14.799Z,9.50
2022-10-05T20:37:04.917Z,9.10
2022-10-05T20:39:54.982Z,9.10
2022-10-05T20:42:45.080Z,8.50
2022-10-05T20:45:35.753Z,9.20
2022-10-05T20:48:26.417Z,10.80
2022-10-05T20:51:18.790Z,9.10
2022-10-05T20:55:23.495Z,10.50
2022-10-05T20:58:48.642Z,13.20
2022-10-05T21:01:50.667Z,7.90
2022-10-05T21:07:42.238Z,8.90
2022-10-05T21:10:32.619Z,9.80
2022-10-05T21:13:25.106Z,8.40
2022-10-05T21:16:23.747Z,8.90
2022-10-05T21:19:14.558Z,10.00
2022-10-05T21:22:07.459Z,10.20
2022-10-05T21:24:57.925Z,10.20
2022-10-05T21:27:49.657Z,9.20
2022-10-05T21:30:41.502Z,10.30
2022-10-05T21:33:32.192Z,9.20
2022-10-05T21:36:24.684Z,9.40
2022-10-05T21:39:15.089Z,11.30
2022-10-05T21:42:06.092Z,8.80
2022-10-05T21:44:56.361Z,9.30
2022-10-05T21:47:46.596Z,9.80
2022-10-05T21:50:36.859Z,8.70
2022-10-05T21:53:30.392Z,10.80
2022-10-05T21:56:22.114Z,11.10
2022-10-05T21:59:13.287Z,8.20
2022-10-05T22:02:04.608Z,8.70
2022-10-05T22:04:54.653Z,9.10
2022-10-05T22:07:44.674Z,12.50
2022-10-05T22:10:35.017Z,9.40
2022-10-05T22:13:25.542Z,8.50
2022-10-05T22:16:16.199Z,8.30
2022-10-05T22:19:10.066Z,9.10
2022-10-05T22:22:00.107Z,8.10
2022-10-05T22:24:50.519Z,8.00
2022-10-05T22:27:40.611Z,8.20
2022-10-05T22:30:30.925Z,8.70
2022-10-05T22:33:21.401Z,7.80
2022-10-05T22:36:11.388Z,9.30
2022-10-05T22:39:01.835Z,8.50
2022-10-05T22:41:52.021Z,8.10
2022-10-05T22:44:42.235Z,8.70
2022-10-05T22:47:32.581Z,7.40
2022-10-05T22:50:22.813Z,8.60
2022-10-05T22:53:13.663Z,8.50
2022-10-05T22:56:08.498Z,8.80
2022-10-05T22:58:58.495Z,8.00
2022-10-05T23:01:48.636Z,7.90
2022-10-05T23:04:38.835Z,7.80
2022-10-05T23:07:33.821Z,8.00
2022-10-05T23:10:25.595Z,8.80
2022-10-05T23:13:16.594Z,7.50
2022-10-05T23:16:11.474Z,8.60
2022-10-05T23:19:02.605Z,7.40
2022-10-05T23:21:53.043Z,9.30
2022-10-05T23:24:43.605Z,7.90
2022-10-05T23:27:38.380Z,7.80
2022-10-05T23:30:28.783Z,7.80
2022-10-05T23:33:19.169Z,8.10
2022-10-05T23:36:12.269Z,7.40
2022-10-05T23:39:02.682Z,8.50
2022-10-05T23:41:53.189Z,8.00
2022-10-05T23:44:43.228Z,7.40
2022-10-05T23:47:33.251Z,7.80
2022-10-05T23:50:24.556Z,7.90
2022-10-05T23:53:14.644Z,8.90
2022-10-05T23:56:05.143Z,7.70
2022-10-05T23:58:55.358Z,6.90
